sensor_id;sensor_type;location;lat;lon;timestamp;P1;durP1;ratioP1;P2;durP2;ratioP2
84956;SDS011;75252;45.438;-73.814;2024-01-25T00:01:19;13.48;;;7.63;;
84956;SDS011;75252;45.438;-73.814;2024-01-25T00:03:45;19.60;;;8.73;;
84956;SDS011;75252;45.438;-73.814;2024-01-25T00:06:10;14.10;;;7.60;;
84956;SDS011;75252;45.438;-73.814;2024-01-25T00:08:36;11.80;;;7.22;;
84956;SDS011;75252;45.438;-73.814;2024-01-25T00:11:02;13.98;;;8.60;;
84956;SDS011;75252;45.438;-73.814;2024-01-25T00:13:29;16.17;;;7.65;;
84956;SDS011;75252;45.438;-73.814;2024-01-25T00:15:55;15.77;;;7.60;;
84956;SDS011;75252;45.438;-73.814;2024-01-25T00:18:21;15.10;;;7.70;;
84956;SDS011;75252;45.438;-73.814;2024-01-25T00:20:47;12.93;;;7.38;;
84956;SDS011;75252;45.438;-73.814;2024-01-25T00:23:13;15.15;;;9.02;;
84956;SDS011;75252;45.438;-73.814;2024-01-25T00:25:38;16.02;;;8.90;;
84956;SDS011;75252;45.438;-73.814;2024-01-25T00:28:04;14.43;;;7.15;;
84956;SDS011;75252;45.438;-73.814;2024-01-25T00:30:30;13.40;;;7.82;;
84956;SDS011;75252;45.438;-73.814;2024-01-25T00:32:56;12.73;;;7.85;;
84956;SDS011;75252;45.438;-73.814;2024-01-25T00:35:23;9.77;;;7.18;;
84956;SDS011;75252;45.438;-73.814;2024-01-25T00:37:50;12.68;;;7.80;;
84956;SDS011;75252;45.438;-73.814;2024-01-25T00:40:16;10.60;;;5.93;;
84956;SDS011;75252;45.438;-73.814;2024-01-25T00:42:44;13.95;;;8.13;;
84956;SDS011;75252;45.438;-73.814;2024-01-25T00:45:18;16.45;;;7.72;;
84956;SDS011;75252;45.438;-73.814;2024-01-25T00:47:48;16.15;;;8.43;;
84956;SDS011;75252;45.438;-73.814;2024-01-25T00:50:15;14.93;;;8.07;;
84956;SDS011;75252;45.438;-73.814;2024-01-25T00:52:45;17.17;;;7.93;;
84956;SDS011;75252;45.438;-73.814;2024-01-25T00:55:11;16.88;;;8.45;;
84956;SDS011;75252;45.438;-73.814;2024-01-25T00:57:38;16.38;;;8.10;;
84956;SDS011;75252;45.438;-73.814;2024-01-25T01:00:04;17.00;;;8.43;;
84956;SDS011;75252;45.438;-73.814;2024-01-25T01:02:33;16.13;;;8.82;;
84956;SDS011;75252;45.438;-73.814;2024-01-25T01:05:02;22.20;;;9.05;;
84956;SDS011;75252;45.438;-73.814;2024-01-25T01:07:28;11.80;;;7.03;;
84956;SDS011;75252;45.438;-73.814;2024-01-25T01:09:54;18.92;;;9.63;;
84956;SDS011;75252;45.438;-73.814;2024-01-25T01:12:20;15.60;;;9.55;;
84956;SDS011;75252;45.438;-73.814;2024-01-25T01:14:46;12.65;;;9.02;;
84956;SDS011;75252;45.438;-73.814;2024-01-25T01:17:13;15.60;;;8.30;;
84956;SDS011;75252;45.438;-73.814;2024-01-25T01:19:39;17.63;;;9.10;;
84956;SDS011;75252;45.438;-73.814;2024-01-25T01:22:05;19.08;;;8.13;;
84956;SDS011;75252;45.438;-73.814;2024-01-25T01:24:31;14.73;;;8.50;;
84956;SDS011;75252;45.438;-73.814;2024-01-25T01:26:56;18.00;;;8.05;;
84956;SDS011;75252;45.438;-73.814;2024-01-25T01:29:23;15.48;;;8.85;;
84956;SDS011;75252;45.438;-73.814;2024-01-25T01:31:49;16.02;;;8.80;;
84956;SDS011;75252;45.438;-73.814;2024-01-25T01:34:15;14.77;;;7.82;;
84956;SDS011;75252;45.438;-73.814;2024-01-25T01:36:43;13.27;;;7.47;;
84956;SDS011;75252;45.438;-73.814;2024-01-25T01:39:09;12.32;;;8.23;;
84956;SDS011;75252;45.438;-73.814;2024-01-25T01:41:35;16.63;;;8.65;;
84956;SDS011;75252;45.438;-73.814;2024-01-25T01:44:01;15.25;;;8.52;;
84956;SDS011;75252;45.438;-73.814;2024-01-25T01:46:33;15.00;;;8.45;;
84956;SDS011;75252;45.438;-73.814;2024-01-25T01:49:02;10.63;;;7.03;;
84956;SDS011;75252;45.438;-73.814;2024-01-25T01:51:32;12.43;;;7.43;;
84956;SDS011;75252;45.438;-73.814;2024-01-25T01:53:59;17.92;;;8.50;;
84956;SDS011;75252;45.438;-73.814;2024-01-25T01:56:28;12.00;;;7.25;;
84956;SDS011;75252;45.438;-73.814;2024-01-25T01:58:55;14.68;;;8.15;;
84956;SDS011;75252;45.438;-73.814;2024-01-25T02:01:26;11.00;;;7.82;;
84956;SDS011;75252;45.438;-73.814;2024-01-25T02:03:52;10.27;;;6.35;;
84956;SDS011;75252;45.438;-73.814;2024-01-25T02:06:19;14.02;;;8.07;;
84956;SDS011;75252;45.438;-73.814;2024-01-25T02:08:46;12.45;;;6.60;;
84956;SDS011;75252;45.438;-73.814;2024-01-25T02:11:17;9.98;;;7.43;;
84956;SDS011;75252;45.438;-73.814;2024-01-25T02:13:44;13.57;;;7.68;;
84956;SDS011;75252;45.438;-73.814;2024-01-25T02:16:10;11.73;;;7.78;;
84956;SDS011;75252;45.438;-73.814;2024-01-25T02:18:36;13.98;;;8.48;;
84956;SDS011;75252;45.438;-73.814;2024-01-25T02:21:01;11.48;;;7.38;;
84956;SDS011;75252;45.438;-73.814;2024-01-25T02:23:27;10.98;;;6.43;;
84956;SDS011;75252;45.438;-73.814;2024-01-25T02:25:53;11.23;;;7.03;;
84956;SDS011;75252;45.438;-73.814;2024-01-25T02:28:19;13.73;;;7.68;;
84956;SDS011;75252;45.438;-73.814;2024-01-25T02:30:45;14.35;;;7.60;;
84956;SDS011;75252;45.438;-73.814;2024-01-25T02:33:11;12.60;;;8.45;;
84956;SDS011;75252;45.438;-73.814;2024-01-25T02:35:37;15.05;;;8.75;;
84956;SDS011;75252;45.438;-73.814;2024-01-25T02:38:03;15.73;;;7.82;;
84956;SDS011;75252;45.438;-73.814;2024-01-25T02:40:29;11.00;;;8.43;;
84956;SDS011;75252;45.438;-73.814;2024-01-25T02:42:55;13.45;;;7.43;;
84956;SDS011;75252;45.438;-73.814;2024-01-25T02:45:24;11.73;;;8.30;;
84956;SDS011;75252;45.438;-73.814;2024-01-25T02:47:50;16.20;;;7.38;;
84956;SDS011;75252;45.438;-73.814;2024-01-25T02:50:16;12.15;;;8.30;;
84956;SDS011;75252;45.438;-73.814;2024-01-25T02:52:42;11.15;;;7.10;;
84956;SDS011;75252;45.438;-73.814;2024-01-25T02:55:07;17.05;;;7.85;;
84956;SDS011;75252;45.438;-73.814;2024-01-25T02:57:33;12.10;;;7.32;;
84956;SDS011;75252;45.438;-73.814;2024-01-25T02:59:59;11.95;;;6.60;;
84956;SDS011;75252;45.438;-73.814;2024-01-25T03:02:26;14.07;;;8.38;;
84956;SDS011;75252;45.438;-73.814;2024-01-25T03:04:51;14.80;;;8.40;;
84956;SDS011;75252;45.438;-73.814;2024-01-25T03:07:17;12.65;;;7.63;;
84956;SDS011;75252;45.438;-73.814;2024-01-25T03:09:43;13.93;;;7.47;;
84956;SDS011;75252;45.438;-73.814;2024-01-25T03:12:09;14.20;;;7.80;;
84956;SDS011;75252;45.438;-73.814;2024-01-25T03:14:35;13.73;;;7.35;;
84956;SDS011;75252;45.438;-73.814;2024-01-25T03:17:01;12.98;;;7.07;;
84956;SDS011;75252;45.438;-73.814;2024-01-25T03:19:27;13.70;;;7.18;;
84956;SDS011;75252;45.438;-73.814;2024-01-25T03:21:54;13.18;;;7.75;;
84956;SDS011;75252;45.438;-73.814;2024-01-25T03:24:20;12.68;;;7.70;;
84956;SDS011;75252;45.438;-73.814;2024-01-25T03:26:47;13.45;;;8.40;;
84956;SDS011;75252;45.438;-73.814;2024-01-25T03:29:13;16.75;;;9.05;;
84956;SDS011;75252;45.438;-73.814;2024-01-25T03:31:39;11.10;;;7.47;;
84956;SDS011;75252;45.438;-73.814;2024-01-25T03:34:05;11.90;;;7.28;;
84956;SDS011;75252;45.438;-73.814;2024-01-25T03:36:31;13.60;;;7.40;;
84956;SDS011;75252;45.438;-73.814;2024-01-25T03:38:58;13.18;;;7.20;;
84956;SDS011;75252;45.438;-73.814;2024-01-25T03:41:23;15.30;;;8.05;;
84956;SDS011;75252;45.438;-73.814;2024-01-25T03:43:50;11.27;;;7.70;;
84956;SDS011;75252;45.438;-73.814;2024-01-25T03:46:16;14.20;;;8.13;;
84956;SDS011;75252;45.438;-73.814;2024-01-25T03:48:42;16.27;;;8.50;;
84956;SDS011;75252;45.438;-73.814;2024-01-25T03:51:08;12.18;;;7.70;;
84956;SDS011;75252;45.438;-73.814;2024-01-25T03:53:34;12.95;;;7.80;;
84956;SDS011;75252;45.438;-73.814;2024-01-25T03:56:00;17.08;;;8.10;;
84956;SDS011;75252;45.438;-73.814;2024-01-25T03:58:26;13.98;;;7.30;;
84956;SDS011;75252;45.438;-73.814;2024-01-25T04:00:52;15.75;;;7.70;;
84956;SDS011;75252;45.438;-73.814;2024-01-25T04:03:18;15.10;;;7.93;;
84956;SDS011;75252;45.438;-73.814;2024-01-25T04:05:44;13.55;;;7.55;;
84956;SDS011;75252;45.438;-73.814;2024-01-25T04:08:10;13.93;;;7.75;;
84956;SDS011;75252;45.438;-73.814;2024-01-25T04:10:36;11.10;;;6.82;;
84956;SDS011;75252;45.438;-73.814;2024-01-25T04:13:01;13.25;;;8.13;;
84956;SDS011;75252;45.438;-73.814;2024-01-25T04:15:30;15.63;;;8.23;;
84956;SDS011;75252;45.438;-73.814;2024-01-25T04:17:56;15.60;;;9.25;;
84956;SDS011;75252;45.438;-73.814;2024-01-25T04:20:22;10.27;;;7.15;;
84956;SDS011;75252;45.438;-73.814;2024-01-25T04:22:48;10.02;;;7.03;;
84956;SDS011;75252;45.438;-73.814;2024-01-25T04:25:14;12.25;;;7.28;;
84956;SDS011;75252;45.438;-73.814;2024-01-25T04:27:40;13.68;;;6.90;;
84956;SDS011;75252;45.438;-73.814;2024-01-25T04:30:07;15.23;;;8.18;;
84956;SDS011;75252;45.438;-73.814;2024-01-25T04:32:34;16.67;;;8.52;;
84956;SDS011;75252;45.438;-73.814;2024-01-25T04:34:59;13.43;;;8.32;;
84956;SDS011;75252;45.438;-73.814;2024-01-25T04:37:25;12.02;;;8.30;;
84956;SDS011;75252;45.438;-73.814;2024-01-25T04:39:51;15.73;;;7.60;;
84956;SDS011;75252;45.438;-73.814;2024-01-25T04:42:17;17.10;;;8.52;;
84956;SDS011;75252;45.438;-73.814;2024-01-25T04:44:43;12.65;;;7.75;;
84956;SDS011;75252;45.438;-73.814;2024-01-25T04:47:09;12.35;;;8.23;;
84956;SDS011;75252;45.438;-73.814;2024-01-25T04:49:35;11.68;;;7.60;;
84956;SDS011;75252;45.438;-73.814;2024-01-25T04:52:02;10.40;;;6.90;;
84956;SDS011;75252;45.438;-73.814;2024-01-25T04:54:28;13.20;;;7.47;;
84956;SDS011;75252;45.438;-73.814;2024-01-25T04:56:54;13.70;;;7.03;;
84956;SDS011;75252;45.438;-73.814;2024-01-25T04:59:20;11.90;;;7.93;;
84956;SDS011;75252;45.438;-73.814;2024-01-25T05:01:46;11.98;;;6.78;;
84956;SDS011;75252;45.438;-73.814;2024-01-25T05:04:12;12.57;;;7.90;;
84956;SDS011;75252;45.438;-73.814;2024-01-25T05:06:38;12.48;;;6.82;;
84956;SDS011;75252;45.438;-73.814;2024-01-25T05:09:04;10.45;;;6.28;;
84956;SDS011;75252;45.438;-73.814;2024-01-25T05:11:30;13.30;;;7.32;;
84956;SDS011;75252;45.438;-73.814;2024-01-25T05:13:56;14.00;;;7.55;;
84956;SDS011;75252;45.438;-73.814;2024-01-25T05:16:21;12.73;;;6.65;;
84956;SDS011;75252;45.438;-73.814;2024-01-25T05:18:47;12.07;;;6.93;;
84956;SDS011;75252;45.438;-73.814;2024-01-25T05:21:13;9.50;;;6.43;;
84956;SDS011;75252;45.438;-73.814;2024-01-25T05:23:39;14.10;;;7.65;;
84956;SDS011;75252;45.438;-73.814;2024-01-25T05:26:05;12.40;;;7.28;;
84956;SDS011;75252;45.438;-73.814;2024-01-25T05:28:31;9.75;;;6.53;;
84956;SDS011;75252;45.438;-73.814;2024-01-25T05:30:57;12.73;;;7.05;;
84956;SDS011;75252;45.438;-73.814;2024-01-25T05:33:23;12.85;;;7.63;;
84956;SDS011;75252;45.438;-73.814;2024-01-25T05:35:50;14.18;;;6.93;;
84956;SDS011;75252;45.438;-73.814;2024-01-25T05:38:15;11.18;;;7.43;;
84956;SDS011;75252;45.438;-73.814;2024-01-25T05:40:41;9.68;;;6.18;;
84956;SDS011;75252;45.438;-73.814;2024-01-25T05:43:07;11.50;;;7.28;;
84956;SDS011;75252;45.438;-73.814;2024-01-25T05:45:33;11.77;;;7.03;;
84956;SDS011;75252;45.438;-73.814;2024-01-25T05:47:59;11.25;;;6.63;;
84956;SDS011;75252;45.438;-73.814;2024-01-25T05:50:25;11.05;;;6.95;;
84956;SDS011;75252;45.438;-73.814;2024-01-25T05:52:51;13.15;;;8.05;;
84956;SDS011;75252;45.438;-73.814;2024-01-25T05:55:17;13.55;;;7.53;;
84956;SDS011;75252;45.438;-73.814;2024-01-25T05:57:43;12.18;;;7.85;;
84956;SDS011;75252;45.438;-73.814;2024-01-25T06:00:12;15.68;;;7.65;;
84956;SDS011;75252;45.438;-73.814;2024-01-25T06:02:39;11.32;;;8.07;;
84956;SDS011;75252;45.438;-73.814;2024-01-25T06:05:05;12.85;;;6.78;;
84956;SDS011;75252;45.438;-73.814;2024-01-25T06:07:32;12.15;;;7.13;;
84956;SDS011;75252;45.438;-73.814;2024-01-25T06:09:58;12.02;;;7.47;;
84956;SDS011;75252;45.438;-73.814;2024-01-25T06:12:24;10.63;;;7.10;;
84956;SDS011;75252;45.438;-73.814;2024-01-25T06:14:50;14.20;;;8.02;;
84956;SDS011;75252;45.438;-73.814;2024-01-25T06:17:17;14.32;;;8.10;;
84956;SDS011;75252;45.438;-73.814;2024-01-25T06:19:43;13.88;;;8.02;;
84956;SDS011;75252;45.438;-73.814;2024-01-25T06:22:10;12.20;;;7.60;;
84956;SDS011;75252;45.438;-73.814;2024-01-25T06:27:04;12.65;;;6.32;;
84956;SDS011;75252;45.438;-73.814;2024-01-25T06:29:30;12.68;;;7.53;;
84956;SDS011;75252;45.438;-73.814;2024-01-25T06:31:57;11.90;;;6.85;;
84956;SDS011;75252;45.438;-73.814;2024-01-25T06:34:23;10.32;;;6.60;;
84956;SDS011;75252;45.438;-73.814;2024-01-25T06:36:49;11.98;;;7.10;;
84956;SDS011;75252;45.438;-73.814;2024-01-25T06:39:15;10.77;;;7.10;;
84956;SDS011;75252;45.438;-73.814;2024-01-25T06:41:41;11.68;;;6.38;;
84956;SDS011;75252;45.438;-73.814;2024-01-25T06:44:07;13.40;;;7.10;;
84956;SDS011;75252;45.438;-73.814;2024-01-25T06:46:33;12.77;;;7.43;;
84956;SDS011;75252;45.438;-73.814;2024-01-25T06:48:59;12.30;;;7.13;;
84956;SDS011;75252;45.438;-73.814;2024-01-25T06:51:25;11.63;;;7.10;;
84956;SDS011;75252;45.438;-73.814;2024-01-25T06:53:51;12.82;;;6.75;;
84956;SDS011;75252;45.438;-73.814;2024-01-25T06:56:17;10.15;;;6.72;;
84956;SDS011;75252;45.438;-73.814;2024-01-25T06:58:43;10.60;;;7.15;;
84956;SDS011;75252;45.438;-73.814;2024-01-25T07:01:08;13.95;;;7.68;;
84956;SDS011;75252;45.438;-73.814;2024-01-25T07:03:34;14.25;;;8.35;;
84956;SDS011;75252;45.438;-73.814;2024-01-25T07:06:00;12.82;;;8.23;;
84956;SDS011;75252;45.438;-73.814;2024-01-25T07:08:26;11.05;;;7.10;;
84956;SDS011;75252;45.438;-73.814;2024-01-25T07:10:52;11.43;;;7.47;;
84956;SDS011;75252;45.438;-73.814;2024-01-25T07:13:18;12.18;;;6.80;;
84956;SDS011;75252;45.438;-73.814;2024-01-25T07:15:44;11.00;;;7.35;;
84956;SDS011;75252;45.438;-73.814;2024-01-25T07:18:10;11.10;;;7.28;;
84956;SDS011;75252;45.438;-73.814;2024-01-25T07:20:36;11.43;;;7.72;;
84956;SDS011;75252;45.438;-73.814;2024-01-25T07:23:02;14.05;;;7.45;;
84956;SDS011;75252;45.438;-73.814;2024-01-25T07:25:28;11.45;;;7.65;;
84956;SDS011;75252;45.438;-73.814;2024-01-25T07:27:54;13.77;;;7.13;;
84956;SDS011;75252;45.438;-73.814;2024-01-25T07:30:20;15.80;;;8.05;;
84956;SDS011;75252;45.438;-73.814;2024-01-25T07:32:46;13.25;;;7.22;;
84956;SDS011;75252;45.438;-73.814;2024-01-25T07:35:12;14.13;;;7.63;;
84956;SDS011;75252;45.438;-73.814;2024-01-25T07:37:39;14.02;;;7.65;;
84956;SDS011;75252;45.438;-73.814;2024-01-25T07:40:06;11.93;;;7.97;;
84956;SDS011;75252;45.438;-73.814;2024-01-25T07:42:33;13.55;;;8.18;;
84956;SDS011;75252;45.438;-73.814;2024-01-25T07:44:59;11.90;;;7.03;;
84956;SDS011;75252;45.438;-73.814;2024-01-25T07:47:25;14.23;;;8.70;;
84956;SDS011;75252;45.438;-73.814;2024-01-25T07:49:51;14.38;;;8.30;;
84956;SDS011;75252;45.438;-73.814;2024-01-25T07:52:17;13.73;;;7.72;;
84956;SDS011;75252;45.438;-73.814;2024-01-25T07:54:43;12.07;;;7.75;;
84956;SDS011;75252;45.438;-73.814;2024-01-25T07:57:09;14.25;;;7.63;;
84956;SDS011;75252;45.438;-73.814;2024-01-25T07:59:35;10.48;;;7.30;;
84956;SDS011;75252;45.438;-73.814;2024-01-25T08:02:01;11.60;;;6.90;;
84956;SDS011;75252;45.438;-73.814;2024-01-25T08:04:27;12.20;;;7.20;;
84956;SDS011;75252;45.438;-73.814;2024-01-25T08:06:56;11.52;;;6.68;;
84956;SDS011;75252;45.438;-73.814;2024-01-25T08:09:22;9.98;;;6.70;;
84956;SDS011;75252;45.438;-73.814;2024-01-25T08:11:48;10.27;;;6.65;;
84956;SDS011;75252;45.438;-73.814;2024-01-25T08:14:14;12.02;;;6.28;;
84956;SDS011;75252;45.438;-73.814;2024-01-25T08:16:41;10.43;;;7.13;;
84956;SDS011;75252;45.438;-73.814;2024-01-25T08:19:07;13.15;;;7.00;;
84956;SDS011;75252;45.438;-73.814;2024-01-25T08:21:33;9.85;;;6.57;;
84956;SDS011;75252;45.438;-73.814;2024-01-25T08:24:01;13.00;;;6.60;;
84956;SDS011;75252;45.438;-73.814;2024-01-25T08:26:27;10.40;;;6.78;;
84956;SDS011;75252;45.438;-73.814;2024-01-25T08:28:53;10.63;;;6.32;;
84956;SDS011;75252;45.438;-73.814;2024-01-25T08:31:19;10.68;;;7.55;;
84956;SDS011;75252;45.438;-73.814;2024-01-25T08:33:45;10.68;;;6.45;;
84956;SDS011;75252;45.438;-73.814;2024-01-25T08:36:21;12.00;;;7.18;;
84956;SDS011;75252;45.438;-73.814;2024-01-25T08:38:48;13.07;;;6.45;;
84956;SDS011;75252;45.438;-73.814;2024-01-25T08:41:13;11.88;;;6.72;;
84956;SDS011;75252;45.438;-73.814;2024-01-25T08:43:40;10.85;;;6.40;;
84956;SDS011;75252;45.438;-73.814;2024-01-25T08:46:07;10.45;;;6.75;;
84956;SDS011;75252;45.438;-73.814;2024-01-25T08:48:33;11.73;;;6.93;;
84956;SDS011;75252;45.438;-73.814;2024-01-25T08:50:59;11.52;;;6.85;;
84956;SDS011;75252;45.438;-73.814;2024-01-25T08:53:25;11.30;;;6.70;;
84956;SDS011;75252;45.438;-73.814;2024-01-25T08:55:54;12.60;;;7.15;;
84956;SDS011;75252;45.438;-73.814;2024-01-25T08:58:20;12.18;;;6.70;;
84956;SDS011;75252;45.438;-73.814;2024-01-25T09:00:46;13.23;;;6.93;;
84956;SDS011;75252;45.438;-73.814;2024-01-25T09:03:14;15.95;;;7.60;;
84956;SDS011;75252;45.438;-73.814;2024-01-25T09:05:40;12.55;;;7.60;;
84956;SDS011;75252;45.438;-73.814;2024-01-25T09:08:11;8.60;;;5.95;;
84956;SDS011;75252;45.438;-73.814;2024-01-25T09:10:40;8.77;;;5.63;;
84956;SDS011;75252;45.438;-73.814;2024-01-25T09:13:07;10.95;;;6.80;;
84956;SDS011;75252;45.438;-73.814;2024-01-25T09:15:33;13.30;;;7.22;;
84956;SDS011;75252;45.438;-73.814;2024-01-25T09:17:59;12.27;;;7.05;;
84956;SDS011;75252;45.438;-73.814;2024-01-25T09:20:25;10.95;;;6.35;;
84956;SDS011;75252;45.438;-73.814;2024-01-25T09:22:51;11.48;;;6.38;;
84956;SDS011;75252;45.438;-73.814;2024-01-25T09:25:20;10.45;;;6.50;;
84956;SDS011;75252;45.438;-73.814;2024-01-25T09:27:47;10.85;;;6.40;;
84956;SDS011;75252;45.438;-73.814;2024-01-25T09:30:13;13.10;;;7.22;;
84956;SDS011;75252;45.438;-73.814;2024-01-25T09:32:39;10.20;;;6.55;;
84956;SDS011;75252;45.438;-73.814;2024-01-25T09:35:05;12.27;;;6.72;;
84956;SDS011;75252;45.438;-73.814;2024-01-25T09:37:31;14.45;;;7.78;;
84956;SDS011;75252;45.438;-73.814;2024-01-25T09:39:57;14.05;;;7.28;;
84956;SDS011;75252;45.438;-73.814;2024-01-25T09:42:24;11.88;;;6.63;;
84956;SDS011;75252;45.438;-73.814;2024-01-25T09:44:50;12.57;;;6.10;;
84956;SDS011;75252;45.438;-73.814;2024-01-25T09:47:19;11.55;;;7.07;;
84956;SDS011;75252;45.438;-73.814;2024-01-25T09:49:46;10.18;;;7.60;;
84956;SDS011;75252;45.438;-73.814;2024-01-25T09:52:12;10.73;;;6.55;;
84956;SDS011;75252;45.438;-73.814;2024-01-25T09:54:39;11.48;;;6.25;;
84956;SDS011;75252;45.438;-73.814;2024-01-25T09:57:07;14.50;;;8.48;;
84956;SDS011;75252;45.438;-73.814;2024-01-25T09:59:40;13.75;;;8.23;;
84956;SDS011;75252;45.438;-73.814;2024-01-25T10:02:06;16.20;;;9.45;;
84956;SDS011;75252;45.438;-73.814;2024-01-25T10:04:34;15.25;;;8.15;;
84956;SDS011;75252;45.438;-73.814;2024-01-25T10:07:00;12.95;;;8.38;;
84956;SDS011;75252;45.438;-73.814;2024-01-25T10:09:26;14.45;;;7.43;;
84956;SDS011;75252;45.438;-73.814;2024-01-25T10:11:52;15.45;;;8.65;;
84956;SDS011;75252;45.438;-73.814;2024-01-25T10:14:19;14.27;;;7.57;;
84956;SDS011;75252;45.438;-73.814;2024-01-25T10:16:45;13.63;;;7.90;;
84956;SDS011;75252;45.438;-73.814;2024-01-25T10:19:11;17.13;;;8.65;;
84956;SDS011;75252;45.438;-73.814;2024-01-25T10:21:37;14.15;;;7.90;;
84956;SDS011;75252;45.438;-73.814;2024-01-25T10:24:06;16.27;;;8.40;;
84956;SDS011;75252;45.438;-73.814;2024-01-25T10:26:33;14.38;;;7.53;;
84956;SDS011;75252;45.438;-73.814;2024-01-25T10:29:00;16.52;;;8.68;;
84956;SDS011;75252;45.438;-73.814;2024-01-25T10:31:26;11.05;;;7.75;;
84956;SDS011;75252;45.438;-73.814;2024-01-25T10:33:54;15.57;;;7.57;;
84956;SDS011;75252;45.438;-73.814;2024-01-25T10:36:21;11.88;;;8.25;;
84956;SDS011;75252;45.438;-73.814;2024-01-25T10:38:50;15.82;;;7.70;;
84956;SDS011;75252;45.438;-73.814;2024-01-25T10:41:19;13.07;;;7.63;;
84956;SDS011;75252;45.438;-73.814;2024-01-25T10:43:45;12.30;;;7.93;;
84956;SDS011;75252;45.438;-73.814;2024-01-25T10:46:11;12.48;;;8.05;;
84956;SDS011;75252;45.438;-73.814;2024-01-25T10:48:37;12.00;;;8.13;;
84956;SDS011;75252;45.438;-73.814;2024-01-25T10:51:04;12.43;;;7.35;;
84956;SDS011;75252;45.438;-73.814;2024-01-25T10:53:33;14.40;;;7.57;;
84956;SDS011;75252;45.438;-73.814;2024-01-25T10:56:00;14.10;;;7.82;;
84956;SDS011;75252;45.438;-73.814;2024-01-25T10:58:31;13.23;;;7.72;;
84956;SDS011;75252;45.438;-73.814;2024-01-25T11:00:59;12.60;;;7.82;;
84956;SDS011;75252;45.438;-73.814;2024-01-25T11:03:26;12.52;;;7.45;;
84956;SDS011;75252;45.438;-73.814;2024-01-25T11:05:54;12.52;;;7.50;;
84956;SDS011;75252;45.438;-73.814;2024-01-25T11:08:21;12.95;;;7.63;;
84956;SDS011;75252;45.438;-73.814;2024-01-25T11:10:52;13.63;;;7.70;;
84956;SDS011;75252;45.438;-73.814;2024-01-25T11:13:26;12.73;;;7.68;;
84956;SDS011;75252;45.438;-73.814;2024-01-25T11:15:52;19.08;;;8.27;;
84956;SDS011;75252;45.438;-73.814;2024-01-25T11:18:18;17.58;;;7.95;;
84956;SDS011;75252;45.438;-73.814;2024-01-25T11:20:46;15.88;;;7.72;;
84956;SDS011;75252;45.438;-73.814;2024-01-25T11:23:15;15.77;;;8.95;;
84956;SDS011;75252;45.438;-73.814;2024-01-25T11:25:44;13.45;;;8.43;;
84956;SDS011;75252;45.438;-73.814;2024-01-25T11:28:13;12.30;;;7.47;;
84956;SDS011;75252;45.438;-73.814;2024-01-25T11:30:44;14.38;;;7.13;;
84956;SDS011;75252;45.438;-73.814;2024-01-25T11:33:10;14.70;;;7.43;;
84956;SDS011;75252;45.438;-73.814;2024-01-25T11:35:37;14.73;;;8.23;;
84956;SDS011;75252;45.438;-73.814;2024-01-25T11:38:03;13.73;;;8.02;;
84956;SDS011;75252;45.438;-73.814;2024-01-25T11:40:29;12.73;;;7.78;;
84956;SDS011;75252;45.438;-73.814;2024-01-25T11:42:56;14.95;;;9.27;;
84956;SDS011;75252;45.438;-73.814;2024-01-25T11:45:22;15.73;;;8.50;;
84956;SDS011;75252;45.438;-73.814;2024-01-25T11:47:48;12.05;;;7.60;;
84956;SDS011;75252;45.438;-73.814;2024-01-25T11:50:15;16.60;;;7.82;;
84956;SDS011;75252;45.438;-73.814;2024-01-25T11:52:41;16.00;;;9.38;;
84956;SDS011;75252;45.438;-73.814;2024-01-25T11:55:10;13.45;;;8.50;;
84956;SDS011;75252;45.438;-73.814;2024-01-25T11:57:40;13.10;;;8.27;;
84956;SDS011;75252;45.438;-73.814;2024-01-25T12:00:07;14.15;;;7.90;;
84956;SDS011;75252;45.438;-73.814;2024-01-25T12:02:35;16.77;;;8.85;;
84956;SDS011;75252;45.438;-73.814;2024-01-25T12:05:02;16.08;;;9.52;;
84956;SDS011;75252;45.438;-73.814;2024-01-25T12:07:32;17.35;;;9.30;;
84956;SDS011;75252;45.438;-73.814;2024-01-25T12:10:06;13.90;;;7.38;;
84956;SDS011;75252;45.438;-73.814;2024-01-25T12:12:32;17.38;;;9.85;;
84956;SDS011;75252;45.438;-73.814;2024-01-25T12:15:02;16.73;;;8.63;;
84956;SDS011;75252;45.438;-73.814;2024-01-25T12:17:31;16.02;;;9.27;;
84956;SDS011;75252;45.438;-73.814;2024-01-25T12:19:58;22.20;;;10.02;;
84956;SDS011;75252;45.438;-73.814;2024-01-25T12:22:28;18.17;;;9.75;;
84956;SDS011;75252;45.438;-73.814;2024-01-25T12:24:55;15.90;;;9.25;;
84956;SDS011;75252;45.438;-73.814;2024-01-25T12:27:22;14.85;;;9.43;;
84956;SDS011;75252;45.438;-73.814;2024-01-25T12:29:50;15.70;;;9.40;;
84956;SDS011;75252;45.438;-73.814;2024-01-25T12:32:18;19.33;;;9.02;;
84956;SDS011;75252;45.438;-73.814;2024-01-25T12:34:54;19.88;;;9.35;;
84956;SDS011;75252;45.438;-73.814;2024-01-25T12:37:21;16.38;;;9.63;;
84956;SDS011;75252;45.438;-73.814;2024-01-25T12:39:48;18.00;;;9.07;;
84956;SDS011;75252;45.438;-73.814;2024-01-25T12:42:15;18.85;;;9.50;;
84956;SDS011;75252;45.438;-73.814;2024-01-25T12:44:41;18.95;;;9.32;;
84956;SDS011;75252;45.438;-73.814;2024-01-25T12:47:07;17.73;;;8.88;;
84956;SDS011;75252;45.438;-73.814;2024-01-25T12:49:33;19.75;;;10.10;;
84956;SDS011;75252;45.438;-73.814;2024-01-25T12:51:59;19.80;;;8.70;;
84956;SDS011;75252;45.438;-73.814;2024-01-25T12:54:26;17.45;;;9.52;;
84956;SDS011;75252;45.438;-73.814;2024-01-25T12:59:19;14.35;;;8.30;;
84956;SDS011;75252;45.438;-73.814;2024-01-25T13:01:45;16.50;;;8.90;;
84956;SDS011;75252;45.438;-73.814;2024-01-25T13:04:11;14.27;;;8.63;;
84956;SDS011;75252;45.438;-73.814;2024-01-25T13:06:37;18.67;;;9.48;;
84956;SDS011;75252;45.438;-73.814;2024-01-25T13:09:03;20.98;;;9.90;;
84956;SDS011;75252;45.438;-73.814;2024-01-25T13:11:29;17.77;;;10.15;;
84956;SDS011;75252;45.438;-73.814;2024-01-25T13:13:58;20.73;;;10.65;;
84956;SDS011;75252;45.438;-73.814;2024-01-25T13:16:24;23.35;;;11.80;;
84956;SDS011;75252;45.438;-73.814;2024-01-25T13:18:50;20.98;;;10.48;;
84956;SDS011;75252;45.438;-73.814;2024-01-25T13:21:16;18.88;;;10.02;;
84956;SDS011;75252;45.438;-73.814;2024-01-25T13:23:42;21.23;;;11.77;;
84956;SDS011;75252;45.438;-73.814;2024-01-25T13:26:07;19.20;;;10.60;;
84956;SDS011;75252;45.438;-73.814;2024-01-25T13:28:34;20.50;;;10.90;;
84956;SDS011;75252;45.438;-73.814;2024-01-25T13:31:00;20.90;;;11.32;;
84956;SDS011;75252;45.438;-73.814;2024-01-25T13:33:27;20.58;;;10.55;;
84956;SDS011;75252;45.438;-73.814;2024-01-25T13:35:53;22.77;;;11.90;;
84956;SDS011;75252;45.438;-73.814;2024-01-25T13:38:19;15.90;;;9.82;;
84956;SDS011;75252;45.438;-73.814;2024-01-25T13:40:45;18.05;;;10.18;;
84956;SDS011;75252;45.438;-73.814;2024-01-25T13:43:10;21.13;;;10.18;;
84956;SDS011;75252;45.438;-73.814;2024-01-25T13:45:36;24.60;;;11.13;;
84956;SDS011;75252;45.438;-73.814;2024-01-25T13:48:02;18.05;;;11.57;;
84956;SDS011;75252;45.438;-73.814;2024-01-25T13:50:28;18.52;;;10.27;;
84956;SDS011;75252;45.438;-73.814;2024-01-25T13:52:54;18.27;;;9.77;;
84956;SDS011;75252;45.438;-73.814;2024-01-25T13:55:20;20.83;;;9.73;;
84956;SDS011;75252;45.438;-73.814;2024-01-25T13:57:46;20.25;;;10.48;;
84956;SDS011;75252;45.438;-73.814;2024-01-25T14:00:12;19.65;;;9.77;;
84956;SDS011;75252;45.438;-73.814;2024-01-25T14:02:39;17.65;;;10.45;;
84956;SDS011;75252;45.438;-73.814;2024-01-25T14:05:10;17.23;;;9.90;;
84956;SDS011;75252;45.438;-73.814;2024-01-25T14:07:36;19.73;;;10.80;;
84956;SDS011;75252;45.438;-73.814;2024-01-25T14:10:03;17.42;;;10.10;;